createdAt,value
2022-11-25T00:01:05.435Z,18.70
2022-11-25T00:06:15.963Z,19.23
2022-11-25T00:11:19.593Z,21.33
2022-11-25T00:16:23.345Z,23.30
2022-11-25T00:21:29.578Z,21.30
2022-11-25T00:26:33.787Z,19.33
2022-11-25T00:31:41.376Z,21.10
2022-11-25T00:36:46.031Z,22.52
2022-11-25T00:42:06.142Z,22.83
2022-11-25T00:47:12.367Z,21.57
2022-11-25T00:52:19.007Z,18.73
2022-11-25T00:57:24.651Z,22.63
2022-11-25T01:02:27.678Z,21.52
2022-11-25T01:07:32.243Z,17.52
2022-11-25T01:12:35.069Z,28.58
2022-11-25T01:17:37.852Z,23.10
2022-11-25T01:22:41.972Z,17.05
2022-11-25T01:27:44.709Z,20.35
2022-11-25T01:32:47.487Z,19.95
2022-11-25T01:37:51.663Z,18.33
2022-11-25T01:42:54.415Z,15.75
2022-11-25T01:48:01.325Z,19.63
2022-11-25T01:53:09.148Z,23.73
2022-11-25T01:58:16.151Z,16.42
2022-11-25T02:03:23.031Z,13.73
2022-11-25T02:08:27.741Z,19.75
2022-11-25T02:13:30.690Z,27.15
2022-11-25T02:18:33.663Z,17.30
2022-11-25T02:23:44.616Z,12.75
2022-11-25T02:28:49.793Z,11.85
2022-11-25T02:33:53.348Z,16.23
2022-11-25T02:38:58.053Z,16.65
2022-11-25T02:44:04.958Z,21.85
2022-11-25T02:49:10.208Z,15.63
2022-11-25T02:54:14.482Z,19.08
2022-11-25T02:59:18.751Z,19.45
2022-11-25T03:04:22.756Z,16.48
2022-11-25T03:09:25.577Z,13.18
2022-11-25T03:14:31.451Z,21.23
2022-11-25T03:19:34.297Z,12.70
2022-11-25T03:24:37.273Z,13.88
2022-11-25T03:29:41.944Z,13.45
2022-11-25T03:34:44.836Z,13.77
2022-11-25T03:39:47.765Z,23.42
2022-11-25T03:44:52.144Z,11.52
2022-11-25T03:49:55.383Z,13.80
2022-11-25T03:54:58.370Z,19.23
2022-11-25T04:00:09.366Z,14.43
2022-11-25T04:05:20.787Z,14.43
2022-11-25T04:10:25.110Z,19.35
2022-11-25T04:15:31.011Z,16.95
2022-11-25T04:20:35.038Z,17.15
2022-11-25T04:25:41.112Z,19.55
2022-11-25T04:30:50.607Z,19.30
2022-11-25T04:35:53.972Z,14.65
2022-11-25T04:40:57.248Z,18.42
2022-11-25T04:46:18.221Z,20.13
2022-11-25T04:51:26.371Z,22.48
2022-11-25T04:56:33.734Z,16.73
2022-11-25T05:01:38.411Z,16.23
2022-11-25T05:06:59.595Z,18.00
2022-11-25T05:12:03.037Z,16.63
2022-11-25T05:17:08.834Z,18.98
2022-11-25T05:22:12.336Z,24.40
2022-11-25T05:27:18.105Z,19.45
2022-11-25T05:32:22.811Z,20.73
2022-11-25T05:37:25.914Z,21.80
2022-11-25T05:42:38.122Z,19.15
2022-11-25T05:47:44.835Z,19.25
2022-11-25T05:52:51.564Z,17.83
2022-11-25T05:57:54.507Z,23.63
2022-11-25T06:02:59.231Z,24.90
2022-11-25T06:08:02.711Z,18.50
2022-11-25T06:13:05.845Z,23.40
2022-11-25T06:18:10.462Z,24.63
2022-11-25T06:23:14.081Z,21.25
2022-11-25T06:28:17.034Z,20.55
2022-11-25T06:33:25.468Z,24.23
2022-11-25T06:38:29.034Z,19.63
2022-11-25T06:43:32.715Z,22.85
2022-11-25T06:48:37.670Z,19.85
2022-11-25T06:53:41.114Z,24.02
2022-11-25T06:58:44.845Z,19.70
2022-11-25T07:03:50.807Z,31.55
2022-11-25T07:08:53.744Z,23.17
2022-11-25T07:13:58.569Z,31.98
2022-11-25T07:19:04.244Z,26.73
2022-11-25T07:24:08.657Z,22.98
2022-11-25T07:29:43.997Z,14.00
2022-11-25T07:34:37.380Z,17.77
2022-11-25T07:39:40.199Z,19.75
2022-11-25T07:44:42.972Z,20.38
2022-11-25T07:50:10.705Z,18.73
2022-11-25T07:55:13.509Z,21.60
2022-11-25T08:00:17.303Z,23.63
2022-11-25T08:05:21.396Z,26.23
2022-11-25T08:10:24.300Z,25.42
2022-11-25T08:15:27.105Z,30.88
2022-11-25T08:20:31.444Z,24.33
2022-11-25T08:25:34.256Z,27.70
2022-11-25T08:30:37.213Z,23.20
2022-11-25T08:35:41.379Z,26.38
2022-11-25T08:40:45.475Z,31.48
2022-11-25T08:45:48.597Z,32.35
2022-11-25T08:50:55.529Z,32.80
2022-11-25T08:55:58.277Z,29.13
2022-11-25T09:01:01.200Z,27.25
2022-11-25T09:06:06.071Z,30.70
2022-11-25T09:11:09.881Z,25.90
2022-11-25T09:16:12.829Z,34.03
2022-11-25T09:21:18.657Z,14.68
2022-11-25T09:26:24.632Z,15.68
2022-11-25T09:31:27.659Z,19.20
2022-11-25T09:36:31.874Z,11.32
2022-11-25T09:42:11.436Z,16.02
2022-11-25T09:47:23.707Z,18.92
2022-11-25T09:52:38.263Z,14.60
2022-11-25T09:57:59.111Z,17.65
2022-11-25T10:03:07.903Z,15.85
2022-11-25T10:08:16.848Z,17.10
2022-11-25T10:13:23.169Z,13.23
2022-11-25T10:18:30.868Z,19.48
2022-11-25T10:23:38.630Z,13.00
2022-11-25T10:28:46.402Z,15.27
2022-11-25T10:33:52.864Z,7.85
2022-11-25T10:39:00.945Z,15.57
2022-11-25T10:44:04.955Z,9.93
2022-11-25T10:49:15.695Z,15.88
2022-11-25T10:54:27.495Z,8.60
2022-11-25T10:59:33.244Z,9.95
2022-11-25T11:04:37.673Z,16.95
2022-11-25T11:09:42.095Z,16.70
2022-11-25T11:14:44.858Z,10.77
2022-11-25T11:20:02.151Z,9.77
2022-11-25T11:25:24.275Z,9.15
2022-11-25T11:30:29.459Z,11.10
2022-11-25T11:35:47.903Z,13.55
2022-11-25T11:40:56.264Z,13.05
2022-11-25T11:46:12.661Z,13.27
2022-11-25T11:51:23.807Z,11.73
2022-11-25T11:56:36.186Z,14.30
2022-11-25T12:01:50.070Z,15.35
2022-11-25T12:07:03.621Z,18.20
2022-11-25T12:12:14.271Z,16.02
2022-11-25T12:17:21.756Z,13.80
2022-11-25T12:22:29.942Z,17.52
2022-11-25T12:27:38.751Z,15.60
2022-11-25T12:32:58.070Z,14.93
2022-11-25T12:38:09.919Z,11.43
2022-11-25T12:43:26.830Z,18.03
2022-11-25T12:48:29.656Z,13.35
2022-11-25T12:53:42.635Z,14.85
2022-11-25T12:59:04.360Z,11.90
2022-11-25T13:04:38.453Z,11.40
2022-11-25T13:09:57.572Z,12.75
2022-11-25T13:15:21.520Z,13.32
2022-11-25T13:20:38.081Z,12.13
2022-11-25T13:25:43.380Z,16.67
2022-11-25T13:30:51.514Z,15.52
2022-11-25T13:35:55.151Z,12.18
2022-11-25T13:41:00.208Z,11.30
2022-11-25T13:46:04.489Z,14.90
2022-11-25T13:51:19.727Z,15.60
2022-11-25T13:56:29.413Z,10.50
2022-11-25T14:01:33.532Z,13.07
2022-11-25T14:07:02.760Z,11.93
2022-11-25T14:12:34.696Z,14.85
2022-11-25T14:18:09.932Z,12.63
2022-11-25T14:23:50.593Z,18.35
2022-11-25T14:28:58.906Z,10.70
2022-11-25T14:34:12.017Z,10.25
2022-11-25T14:39:22.750Z,13.95
2022-11-25T14:44:29.559Z,13.70
2022-11-25T14:49:55.730Z,13.18
2022-11-25T14:55:12.783Z,16.20
2022-11-25T15:00:17.789Z,14.15
2022-11-25T15:05:26.059Z,11.80
2022-11-25T15:10:42.054Z,15.27
2022-11-25T15:15:49.319Z,10.75
2022-11-25T15:20:58.359Z,13.23
2022-11-25T15:26:02.162Z,13.45
2022-11-25T15:31:10.488Z,14.00
2022-11-25T15:36:14.711Z,16.38
2022-11-25T15:41:21.637Z,23.45
2022-11-25T15:46:25.558Z,17.05
2022-11-25T15:51:41.573Z,17.48
2022-11-25T15:56:48.964Z,17.73
2022-11-25T16:01:51.816Z,18.92
2022-11-25T16:06:59.499Z,18.83
2022-11-25T16:12:07.403Z,21.23
2022-11-25T16:17:13.011Z,27.67
2022-11-25T16:22:19.900Z,18.90
2022-11-25T16:27:25.318Z,18.60
2022-11-25T16:32:31.508Z,20.50
2022-11-25T16:37:35.619Z,19.55
2022-11-25T16:42:39.052Z,17.85
2022-11-25T16:47:41.772Z,16.95
2022-11-25T16:57:48.468Z,21.02
2022-11-25T17:02:51.264Z,13.82
2022-11-25T17:07:55.477Z,18.40
2022-11-25T17:12:58.380Z,13.32
2022-11-25T17:18:01.920Z,11.75
2022-11-25T17:23:13.124Z,13.80
2022-11-25T17:28:18.387Z,13.32
2022-11-25T17:33:21.322Z,15.07
2022-11-25T17:38:25.448Z,17.70
2022-11-25T17:43:34.363Z,20.27
2022-11-25T17:48:37.990Z,16.98
2022-11-25T17:53:42.755Z,15.82
2022-11-25T17:58:45.796Z,19.90
2022-11-25T18:03:49.440Z,17.90
2022-11-25T18:08:53.533Z,21.50
2022-11-25T18:13:56.522Z,21.08
2022-11-25T18:18:59.290Z,13.13
2022-11-25T18:24:03.483Z,19.00
2022-11-25T18:29:07.975Z,17.10
2022-11-25T18:34:15.374Z,20.23
2022-11-25T18:39:19.777Z,22.17
2022-11-25T18:44:37.498Z,18.48
2022-11-25T18:49:40.374Z,17.58
2022-11-25T18:54:44.478Z,15.30
2022-11-25T18:59:55.992Z,14.18
2022-11-25T19:05:03.828Z,10.65
2022-11-25T19:10:13.577Z,14.98
2022-11-25T19:15:21.286Z,12.48
2022-11-25T19:20:25.001Z,15.35
2022-11-25T19:25:29.568Z,16.00
2022-11-25T19:30:33.384Z,18.63
2022-11-25T19:35:38.558Z,19.92
2022-11-25T19:40:42.755Z,14.40
2022-11-25T19:45:46.439Z,19.60
2022-11-25T19:50:51.925Z,28.58
2022-11-25T19:55:56.030Z,18.08
2022-11-25T20:01:03.090Z,22.83
2022-11-25T20:06:06.448Z,24.10
2022-11-25T20:11:13.000Z,22.17
2022-11-25T20:16:19.124Z,18.65
2022-11-25T20:21:27.706Z,28.70
2022-11-25T20:26:35.248Z,25.17
2022-11-25T20:31:38.013Z,26.90
2022-11-25T20:36:42.294Z,26.85
2022-11-25T20:41:49.103Z,27.48
2022-11-25T20:46:51.879Z,29.85
2022-11-25T20:51:54.661Z,27.85
2022-11-25T20:57:00.592Z,33.90
2022-11-25T21:02:03.388Z,26.63
2022-11-25T21:07:11.552Z,29.55
2022-11-25T21:12:19.590Z,38.95
2022-11-25T21:17:22.497Z,30.25
2022-11-25T21:27:29.325Z,27.95
2022-11-25T21:32:32.171Z,31.25
2022-11-25T21:37:36.662Z,31.10
2022-11-25T21:42:40.819Z,32.85
2022-11-25T21:47:43.623Z,35.47
2022-11-25T21:52:46.601Z,32.40
2022-11-25T21:57:51.318Z,34.83
2022-11-25T22:02:54.153Z,33.28
2022-11-25T22:07:57.146Z,30.25
2022-11-25T22:13:01.511Z,38.30
2022-11-25T22:18:04.275Z,38.47
2022-11-25T22:23:14.851Z,40.50
2022-11-25T22:28:21.506Z,41.22
2022-11-25T22:33:29.891Z,36.38
2022-11-25T22:38:32.666Z,37.92
2022-11-25T22:43:43.814Z,36.08
2022-11-25T22:48:47.126Z,46.72
2022-11-25T22:53:49.977Z,42.92
2022-11-25T22:58:59.980Z,60.17
2022-11-25T23:04:03.013Z,38.65
2022-11-25T23:09:11.189Z,47.95
2022-11-25T23:14:15.573Z,44.88
2022-11-25T23:19:18.341Z,48.88
2022-11-25T23:24:21.118Z,41.65
2022-11-25T23:29:25.548Z,43.53
2022-11-25T23:34:28.356Z,49.97
2022-11-25T23:39:32.347Z,47.90
2022-11-25T23:44:36.805Z,44.40
2022-11-25T23:49:44.098Z,44.30
2022-11-25T23:54:48.812Z,53.60
2022-11-25T23:59:53.614Z,50.70
